Zenken Maru — JG5556 — position and weather

sailwx.info

Track history (hours):
 
Tides and Currents Weather Stations Pressure Air Temp Water Temp Dewpoint Dewpoint Depression Visibility Wind Speed Wind Dir Waves Ship Positions

Zenken Maru

Last reported at 2016-Jul-24 08:31 UTC. Time now 2016-Jul-24 08:50 UTC.
Position N 35°21' E 139°41'.

Length 98 m; draft 7.2 m.

Type: Cargo ship. MMSI: 431100955.

Date/timePositionNaut miles runAvg speedWind from/ knotsBaromVisibWave heightAir tempDewpointWater temp
2016-Jul-24 08:31N 35°21' E 139°41'0 0.0
2016-Jul-24 07:28N 35°21' E 139°41'0 0.0
2016-Jul-24 06:31N 35°21' E 139°41'0 0.0
2016-Jul-24 05:31N 35°21' E 139°41'0 0.0
2016-Jul-24 04:31N 35°21' E 139°41'0 0.0
2016-Jul-24 03:31N 35°21' E 139°41'0 0.0
2016-Jul-24 02:31N 35°21' E 139°41'0 0.0
2016-Jul-24 01:28N 35°21' E 139°41'0 0.0
2016-Jul-24 00:31N 35°21' E 139°41'0 0.0
2016-Jul-23 23:31N 35°21' E 139°41'0 0.0
2016-Jul-23 22:31N 35°21' E 139°41'0 0.0
2016-Jul-23 21:31N 35°21' E 139°41'0 0.0
2016-Jul-23 20:31N 35°21' E 139°41'0 0.0
2016-Jul-23 19:31N 35°21' E 139°41'0 0.0
2016-Jul-23 18:31N 35°21' E 139°41'0 0.0
2016-Jul-23 17:31N 35°21' E 139°41'0 0.0
2016-Jul-23 16:31N 35°21' E 139°41'0 0.0
2016-Jul-23 15:31N 35°21' E 139°41'0 0.0
2016-Jul-23 14:31N 35°21' E 139°41'0 0.0
2016-Jul-23 13:31N 35°21' E 139°41'0 0.0
2016-Jul-23 12:31N 35°21' E 139°41'0 0.0
2016-Jul-23 11:31N 35°21' E 139°41'0 0.0
2016-Jul-23 10:31N 35°21' E 139°41'0 0.0
2016-Jul-23 09:31N 35°21' E 139°41'0 0.1
2016-Jul-23 08:31N 35°21' E 139°41'0 0.1
2016-Jul-23 07:31N 35°21' E 139°41'0 0.0
2016-Jul-23 06:31N 35°21' E 139°41'3 1.4
2016-Jul-23 04:32N 35°23' E 139°39'0 0.0
2016-Jul-23 03:32N 35°23' E 139°39'0 0.0
2016-Jul-23 02:32N 35°23' E 139°39'0 0.0
2016-Jul-23 01:32N 35°23' E 139°39'0 0.0
2016-Jul-23 00:32N 35°23' E 139°39'0 0.0
2016-Jul-22 23:32N 35°23' E 139°39'0 0.1
2016-Jul-22 22:34N 35°23' E 139°39'7 6.8
2016-Jul-22 21:34N 35°18' E 139°44'10 9.9
2016-Jul-22 20:34N 35°08' E 139°46'7 7.3
2016-Jul-22 19:33N 35°01' E 139°44'6 5.6
2016-Jul-22 18:34N 34°56' E 139°45'10 9.9
2016-Jul-22 17:32N 34°46' E 139°50'1111.3
2016-Jul-22 16:32N 34°36' E 139°55'20 0.7
2016-Jul-21 10:32N 34°54' E 139°45'1110.9
2016-Jul-21 09:31N 35°05' E 139°45'1111.5
2016-Jul-21 08:33N 35°16' E 139°46'9 9.0
2016-Jul-21 07:34N 35°23' E 139°39'0 0.0
2016-Jul-21 06:33N 35°23' E 139°39'0 0.0
2016-Jul-21 05:33N 35°23' E 139°39'0 0.0
2016-Jul-21 04:33N 35°23' E 139°39'0 0.0
2016-Jul-21 03:33N 35°23' E 139°39'0 0.0
2016-Jul-21 02:33N 35°23' E 139°39'1 0.8
2016-Jul-21 01:34N 35°23' E 139°40'2 2.4
2016-Jul-21 00:33N 35°21' E 139°41'0 0.1
2016-Jul-20 23:33N 35°21' E 139°41'0 0.0
2016-Jul-20 22:33N 35°21' E 139°41'0 0.0
2016-Jul-20 21:33N 35°21' E 139°41'0 0.0
2016-Jul-20 20:33N 35°21' E 139°41'0 0.1
2016-Jul-20 19:33N 35°21' E 139°41'0 0.1
2016-Jul-20 18:33N 35°21' E 139°41'0 0.0
2016-Jul-20 17:30N 35°21' E 139°41'0 0.0
2016-Jul-20 16:33N 35°21' E 139°41'0 0.0
2016-Jul-20 15:33N 35°21' E 139°41'0 0.0
2016-Jul-20 14:33N 35°21' E 139°41'0 0.1
2016-Jul-20 13:33N 35°21' E 139°41'0 0.0
2016-Jul-20 12:33N 35°21' E 139°41'0 0.0
2016-Jul-20 11:33N 35°21' E 139°41'0 0.0
2016-Jul-20 10:33N 35°21' E 139°41'0 0.0
2016-Jul-20 09:33N 35°21' E 139°41'0 0.1
2016-Jul-20 08:33N 35°21' E 139°41'0 0.1
2016-Jul-20 07:33N 35°21' E 139°41'0 0.0
2016-Jul-20 06:33N 35°21' E 139°41'0 0.0
2016-Jul-20 05:33N 35°21' E 139°41'0 0.1
2016-Jul-20 04:33N 35°21' E 139°41'0 0.1
2016-Jul-20 03:33N 35°21' E 139°41'3 2.8
2016-Jul-20 02:32N 35°23' E 139°39'0 0.0
2016-Jul-20 01:32N 35°23' E 139°39'0 0.0
2016-Jul-20 00:32N 35°23' E 139°39'0 0.0
2016-Jul-19 23:32N 35°23' E 139°39'0 0.0
2016-Jul-19 22:32N 35°23' E 139°39'0 0.0
2016-Jul-19 21:32N 35°23' E 139°39'0 0.0
2016-Jul-19 20:32N 35°23' E 139°39'0 0.0
2016-Jul-19 19:32N 35°23' E 139°39'0 0.0
2016-Jul-19 18:32N 35°23' E 139°39'0 0.0
2016-Jul-19 17:32N 35°23' E 139°39'0 0.0
2016-Jul-19 16:32N 35°23' E 139°39'0 0.0
2016-Jul-19 15:32N 35°23' E 139°39'0 0.0
2016-Jul-19 14:32N 35°23' E 139°39'0 0.0
2016-Jul-19 13:32N 35°23' E 139°39'0 0.0
2016-Jul-19 12:32N 35°23' E 139°39'0 0.0
2016-Jul-19 11:32N 35°23' E 139°39'0 0.0
2016-Jul-19 10:29N 35°23' E 139°39'0 0.0
2016-Jul-19 09:32N 35°23' E 139°39'0 0.0
2016-Jul-19 08:32N 35°23' E 139°39'0 0.0
2016-Jul-19 07:32N 35°23' E 139°39'0 0.0
2016-Jul-19 04:32N 35°23' E 139°39'0 0.0
2016-Jul-19 03:32N 35°23' E 139°39'0 0.0
2016-Jul-19 02:32N 35°23' E 139°39'0 0.0
2016-Jul-19 01:32N 35°23' E 139°39'0 0.0
2016-Jul-19 00:32N 35°23' E 139°39'0 0.0
2016-Jul-18 23:32N 35°23' E 139°39'0 0.1
2016-Jul-18 22:33N 35°23' E 139°39'3 2.7
2016-Jul-18 21:33N 35°21' E 139°41'0 0.0
2016-Jul-18 20:33N 35°21' E 139°41'0 0.0
2016-Jul-18 19:26N 35°21' E 139°41'0 0.0
2016-Jul-18 18:32N 35°21' E 139°41'0 0.1
2016-Jul-18 17:29N 35°21' E 139°41'0 0.1
2016-Jul-18 16:32N 35°21' E 139°41'0 0.0
2016-Jul-18 15:26N 35°21' E 139°41'0 0.0
2016-Jul-18 14:11N 35°21' E 139°41'0 0.0
2016-Jul-18 13:32N 35°21' E 139°41'0 0.0
2016-Jul-18 12:32N 35°21' E 139°41'0 0.0
2016-Jul-18 11:29N 35°21' E 139°41'0 0.0
2016-Jul-18 10:26N 35°21' E 139°41'0 0.0
2016-Jul-18 09:32N 35°21' E 139°41'0 0.0
2016-Jul-18 08:29N 35°21' E 139°41'0 0.0
2016-Jul-18 07:17N 35°21' E 139°41'0 0.0
2016-Jul-18 06:17N 35°21' E 139°41'0 0.0
2016-Jul-18 05:32N 35°21' E 139°41'0 0.0
2016-Jul-18 04:32N 35°21' E 139°41'0 0.0
2016-Jul-18 03:32N 35°21' E 139°41'0 0.0
2016-Jul-18 02:32N 35°21' E 139°41'0 0.0
2016-Jul-18 01:26N 35°21' E 139°41'0 0.1
2016-Jul-18 00:29N 35°21' E 139°41'0 0.0
2016-Jul-17 23:32N 35°21' E 139°41'0 0.1
2016-Jul-17 22:32N 35°21' E 139°41'0 0.0
2016-Jul-17 21:32N 35°21' E 139°41'0 0.0
2016-Jul-17 20:32N 35°21' E 139°41'0 0.0
2016-Jul-17 19:32N 35°21' E 139°41'0 0.1
2016-Jul-17 18:32N 35°21' E 139°41'5 5.2
2016-Jul-17 17:33N 35°17' E 139°45'1212.1
2016-Jul-17 16:33N 35°05' E 139°45'1212.0
2016-Jul-17 15:33N 34°53' E 139°46'1612.3
2016-Jul-17 14:17N 34°39' E 139°54'17 0.6
2016-Jul-16 08:10N 34°54' E 139°45'1111.1
2016-Jul-16 07:12N 35°05' E 139°45'811.9
2016-Jul-16 06:33N 35°13' E 139°46'12 6.1
2016-Jul-16 04:33N 35°23' E 139°39'0 0.0
2016-Jul-16 03:30N 35°23' E 139°39'0 0.0
2016-Jul-16 02:33N 35°23' E 139°39'0 0.0
2016-Jul-16 01:33N 35°23' E 139°39'0 0.0
2016-Jul-16 00:27N 35°23' E 139°39'0 0.0
2016-Jul-15 23:33N 35°23' E 139°39'0 0.0
2016-Jul-15 22:33N 35°23' E 139°39'0 0.0
2016-Jul-15 21:33N 35°23' E 139°39'0 0.0
2016-Jul-15 20:33N 35°23' E 139°39'0 0.0
2016-Jul-15 19:33N 35°23' E 139°39'0 0.0
2016-Jul-15 18:33N 35°23' E 139°39'0 0.0
2016-Jul-15 17:33N 35°23' E 139°39'0 0.0
2016-Jul-15 16:33N 35°23' E 139°39'0 0.0
2016-Jul-15 15:33N 35°23' E 139°39'0 0.0
2016-Jul-15 14:33N 35°23' E 139°39'0 0.0
2016-Jul-15 13:33N 35°23' E 139°39'0 0.0
2016-Jul-15 12:33N 35°23' E 139°39'0 0.0
2016-Jul-15 11:33N 35°23' E 139°39'0 0.0
2016-Jul-15 10:33N 35°23' E 139°39'0 0.0
2016-Jul-15 09:33N 35°23' E 139°39'0 0.0
2016-Jul-15 08:33N 35°23' E 139°39'0 0.0
2016-Jul-15 07:33N 35°23' E 139°39'0 0.0
2016-Jul-15 06:33N 35°23' E 139°39'0 0.0
2016-Jul-15 05:33N 35°23' E 139°39'0 0.0
2016-Jul-15 04:33N 35°23' E 139°39'0 0.0
2016-Jul-15 03:33N 35°23' E 139°39'0 0.0
2016-Jul-15 02:33N 35°23' E 139°39'0 0.0
2016-Jul-15 01:33N 35°23' E 139°39'0 0.0
2016-Jul-15 00:33N 35°23' E 139°39'0 0.0
2016-Jul-14 23:33N 35°23' E 139°39'0 0.0
2016-Jul-14 22:34N 35°23' E 139°39'3 2.7
2016-Jul-14 21:34N 35°21' E 139°41'0 0.0
2016-Jul-14 20:32N 35°21' E 139°41'0 0.0
2016-Jul-14 19:32N 35°21' E 139°41'0 0.0
2016-Jul-14 18:29N 35°21' E 139°41'0 0.0
2016-Jul-14 17:32N 35°21' E 139°41'0 0.1
2016-Jul-14 16:33N 35°21' E 139°41'1110.6
2016-Jul-14 15:33N 35°11' E 139°47'1212.1
2016-Jul-14 14:33N 34°60' E 139°43'1212.3
2016-Jul-14 13:33N 34°48' E 139°49'1312.8
2016-Jul-14 12:32N 34°36' E 139°56'  
Track history (hours):
 
Tides and Currents Weather Stations Pressure Air Temp Water Temp Dewpoint Dewpoint Depression Visibility Wind Speed Wind Dir Waves Ship Positions

Zenken Maru

Last reported at 2016-Jul-24 08:31 UTC. Time now 2016-Jul-24 08:50 UTC.
Position N 35°21' E 139°41'.

Length 98 m; draft 7.2 m.

Type: Cargo ship. MMSI: 431100955.

Date/timePositionNaut miles runAvg speedWind from/ knotsBaromVisibWave heightAir tempDewpointWater temp
2016-Jul-24 08:31N 35°21' E 139°41'0 0.0
2016-Jul-24 07:28N 35°21' E 139°41'0 0.0
2016-Jul-24 06:31N 35°21' E 139°41'0 0.0
2016-Jul-24 05:31N 35°21' E 139°41'0 0.0
2016-Jul-24 04:31N 35°21' E 139°41'0 0.0
2016-Jul-24 03:31N 35°21' E 139°41'0 0.0
2016-Jul-24 02:31N 35°21' E 139°41'0 0.0
2016-Jul-24 01:28N 35°21' E 139°41'0 0.0
2016-Jul-24 00:31N 35°21' E 139°41'0 0.0
2016-Jul-23 23:31N 35°21' E 139°41'0 0.0
2016-Jul-23 22:31N 35°21' E 139°41'0 0.0
2016-Jul-23 21:31N 35°21' E 139°41'0 0.0
2016-Jul-23 20:31N 35°21' E 139°41'0 0.0
2016-Jul-23 19:31N 35°21' E 139°41'0 0.0
2016-Jul-23 18:31N 35°21' E 139°41'0 0.0
2016-Jul-23 17:31N 35°21' E 139°41'0 0.0
2016-Jul-23 16:31N 35°21' E 139°41'0 0.0
2016-Jul-23 15:31N 35°21' E 139°41'0 0.0
2016-Jul-23 14:31N 35°21' E 139°41'0 0.0
2016-Jul-23 13:31N 35°21' E 139°41'0 0.0
2016-Jul-23 12:31N 35°21' E 139°41'0 0.0
2016-Jul-23 11:31N 35°21' E 139°41'0 0.0
2016-Jul-23 10:31N 35°21' E 139°41'0 0.0
2016-Jul-23 09:31N 35°21' E 139°41'0 0.1
2016-Jul-23 08:31N 35°21' E 139°41'0 0.1
2016-Jul-23 07:31N 35°21' E 139°41'0 0.0
2016-Jul-23 06:31N 35°21' E 139°41'3 1.4
2016-Jul-23 04:32N 35°23' E 139°39'0 0.0
2016-Jul-23 03:32N 35°23' E 139°39'0 0.0
2016-Jul-23 02:32N 35°23' E 139°39'0 0.0
2016-Jul-23 01:32N 35°23' E 139°39'0 0.0
2016-Jul-23 00:32N 35°23' E 139°39'0 0.0
2016-Jul-22 23:32N 35°23' E 139°39'0 0.1
2016-Jul-22 22:34N 35°23' E 139°39'7 6.8
2016-Jul-22 21:34N 35°18' E 139°44'10 9.9
2016-Jul-22 20:34N 35°08' E 139°46'7 7.3
2016-Jul-22 19:33N 35°01' E 139°44'6 5.6
2016-Jul-22 18:34N 34°56' E 139°45'10 9.9
2016-Jul-22 17:32N 34°46' E 139°50'1111.3
2016-Jul-22 16:32N 34°36' E 139°55'20 0.7
2016-Jul-21 10:32N 34°54' E 139°45'1110.9
2016-Jul-21 09:31N 35°05' E 139°45'1111.5
2016-Jul-21 08:33N 35°16' E 139°46'9 9.0
2016-Jul-21 07:34N 35°23' E 139°39'0 0.0
2016-Jul-21 06:33N 35°23' E 139°39'0 0.0
2016-Jul-21 05:33N 35°23' E 139°39'0 0.0
2016-Jul-21 04:33N 35°23' E 139°39'0 0.0
2016-Jul-21 03:33N 35°23' E 139°39'0 0.0
2016-Jul-21 02:33N 35°23' E 139°39'1 0.8
2016-Jul-21 01:34N 35°23' E 139°40'2 2.4
2016-Jul-21 00:33N 35°21' E 139°41'0 0.1
2016-Jul-20 23:33N 35°21' E 139°41'0 0.0
2016-Jul-20 22:33N 35°21' E 139°41'0 0.0
2016-Jul-20 21:33N 35°21' E 139°41'0 0.0
2016-Jul-20 20:33N 35°21' E 139°41'0 0.1
2016-Jul-20 19:33N 35°21' E 139°41'0 0.1
2016-Jul-20 18:33N 35°21' E 139°41'0 0.0
2016-Jul-20 17:30N 35°21' E 139°41'0 0.0
2016-Jul-20 16:33N 35°21' E 139°41'0 0.0
2016-Jul-20 15:33N 35°21' E 139°41'0 0.0
2016-Jul-20 14:33N 35°21' E 139°41'0 0.1
2016-Jul-20 13:33N 35°21' E 139°41'0 0.0
2016-Jul-20 12:33N 35°21' E 139°41'0 0.0
2016-Jul-20 11:33N 35°21' E 139°41'0 0.0
2016-Jul-20 10:33N 35°21' E 139°41'0 0.0
2016-Jul-20 09:33N 35°21' E 139°41'0 0.1
2016-Jul-20 08:33N 35°21' E 139°41'0 0.1
2016-Jul-20 07:33N 35°21' E 139°41'0 0.0
2016-Jul-20 06:33N 35°21' E 139°41'0 0.0
2016-Jul-20 05:33N 35°21' E 139°41'0 0.1
2016-Jul-20 04:33N 35°21' E 139°41'0 0.1
2016-Jul-20 03:33N 35°21' E 139°41'3 2.8
2016-Jul-20 02:32N 35°23' E 139°39'0 0.0
2016-Jul-20 01:32N 35°23' E 139°39'0 0.0
2016-Jul-20 00:32N 35°23' E 139°39'0 0.0
2016-Jul-19 23:32N 35°23' E 139°39'0 0.0
2016-Jul-19 22:32N 35°23' E 139°39'0 0.0
2016-Jul-19 21:32N 35°23' E 139°39'0 0.0
2016-Jul-19 20:32N 35°23' E 139°39'0 0.0
2016-Jul-19 19:32N 35°23' E 139°39'0 0.0
2016-Jul-19 18:32N 35°23' E 139°39'0 0.0
2016-Jul-19 17:32N 35°23' E 139°39'0 0.0
2016-Jul-19 16:32N 35°23' E 139°39'0 0.0
2016-Jul-19 15:32N 35°23' E 139°39'0 0.0
2016-Jul-19 14:32N 35°23' E 139°39'0 0.0
2016-Jul-19 13:32N 35°23' E 139°39'0 0.0
2016-Jul-19 12:32N 35°23' E 139°39'0 0.0
2016-Jul-19 11:32N 35°23' E 139°39'0 0.0
2016-Jul-19 10:29N 35°23' E 139°39'0 0.0
2016-Jul-19 09:32N 35°23' E 139°39'0 0.0
2016-Jul-19 08:32N 35°23' E 139°39'0 0.0
2016-Jul-19 07:32N 35°23' E 139°39'0 0.0
2016-Jul-19 04:32N 35°23' E 139°39'0 0.0
2016-Jul-19 03:32N 35°23' E 139°39'0 0.0
2016-Jul-19 02:32N 35°23' E 139°39'0 0.0
2016-Jul-19 01:32N 35°23' E 139°39'0 0.0
2016-Jul-19 00:32N 35°23' E 139°39'0 0.0
2016-Jul-18 23:32N 35°23' E 139°39'0 0.1
2016-Jul-18 22:33N 35°23' E 139°39'3 2.7
2016-Jul-18 21:33N 35°21' E 139°41'0 0.0
2016-Jul-18 20:33N 35°21' E 139°41'0 0.0
2016-Jul-18 19:26N 35°21' E 139°41'0 0.0
2016-Jul-18 18:32N 35°21' E 139°41'0 0.1
2016-Jul-18 17:29N 35°21' E 139°41'0 0.1
2016-Jul-18 16:32N 35°21' E 139°41'0 0.0
2016-Jul-18 15:26N 35°21' E 139°41'0 0.0
2016-Jul-18 14:11N 35°21' E 139°41'0 0.0
2016-Jul-18 13:32N 35°21' E 139°41'0 0.0
2016-Jul-18 12:32N 35°21' E 139°41'0 0.0
2016-Jul-18 11:29N 35°21' E 139°41'0 0.0
2016-Jul-18 10:26N 35°21' E 139°41'0 0.0
2016-Jul-18 09:32N 35°21' E 139°41'0 0.0
2016-Jul-18 08:29N 35°21' E 139°41'0 0.0
2016-Jul-18 07:17N 35°21' E 139°41'0 0.0
2016-Jul-18 06:17N 35°21' E 139°41'0 0.0
2016-Jul-18 05:32N 35°21' E 139°41'0 0.0
2016-Jul-18 04:32N 35°21' E 139°41'0 0.0
2016-Jul-18 03:32N 35°21' E 139°41'0 0.0
2016-Jul-18 02:32N 35°21' E 139°41'0 0.0
2016-Jul-18 01:26N 35°21' E 139°41'0 0.1
2016-Jul-18 00:29N 35°21' E 139°41'0 0.0
2016-Jul-17 23:32N 35°21' E 139°41'0 0.1
2016-Jul-17 22:32N 35°21' E 139°41'0 0.0
2016-Jul-17 21:32N 35°21' E 139°41'0 0.0
2016-Jul-17 20:32N 35°21' E 139°41'0 0.0
2016-Jul-17 19:32N 35°21' E 139°41'0 0.1
2016-Jul-17 18:32N 35°21' E 139°41'5 5.2
2016-Jul-17 17:33N 35°17' E 139°45'1212.1
2016-Jul-17 16:33N 35°05' E 139°45'1212.0
2016-Jul-17 15:33N 34°53' E 139°46'1612.3
2016-Jul-17 14:17N 34°39' E 139°54'17 0.6
2016-Jul-16 08:10N 34°54' E 139°45'1111.1
2016-Jul-16 07:12N 35°05' E 139°45'811.9
2016-Jul-16 06:33N 35°13' E 139°46'12 6.1
2016-Jul-16 04:33N 35°23' E 139°39'0 0.0
2016-Jul-16 03:30N 35°23' E 139°39'0 0.0
2016-Jul-16 02:33N 35°23' E 139°39'0 0.0
2016-Jul-16 01:33N 35°23' E 139°39'0 0.0
2016-Jul-16 00:27N 35°23' E 139°39'0 0.0
2016-Jul-15 23:33N 35°23' E 139°39'0 0.0
2016-Jul-15 22:33N 35°23' E 139°39'0 0.0
2016-Jul-15 21:33N 35°23' E 139°39'0 0.0
2016-Jul-15 20:33N 35°23' E 139°39'0 0.0
2016-Jul-15 19:33N 35°23' E 139°39'0 0.0
2016-Jul-15 18:33N 35°23' E 139°39'0 0.0
2016-Jul-15 17:33N 35°23' E 139°39'0 0.0
2016-Jul-15 16:33N 35°23' E 139°39'0 0.0
2016-Jul-15 15:33N 35°23' E 139°39'0 0.0
2016-Jul-15 14:33N 35°23' E 139°39'0 0.0
2016-Jul-15 13:33N 35°23' E 139°39'0 0.0
2016-Jul-15 12:33N 35°23' E 139°39'0 0.0
2016-Jul-15 11:33N 35°23' E 139°39'0 0.0
2016-Jul-15 10:33N 35°23' E 139°39'0 0.0
2016-Jul-15 09:33N 35°23' E 139°39'0 0.0
2016-Jul-15 08:33N 35°23' E 139°39'0 0.0
2016-Jul-15 07:33N 35°23' E 139°39'0 0.0
2016-Jul-15 06:33N 35°23' E 139°39'0 0.0
2016-Jul-15 05:33N 35°23' E 139°39'0 0.0
2016-Jul-15 04:33N 35°23' E 139°39'0 0.0
2016-Jul-15 03:33N 35°23' E 139°39'0 0.0
2016-Jul-15 02:33N 35°23' E 139°39'0 0.0
2016-Jul-15 01:33N 35°23' E 139°39'0 0.0
2016-Jul-15 00:33N 35°23' E 139°39'0 0.0
2016-Jul-14 23:33N 35°23' E 139°39'0 0.0
2016-Jul-14 22:34N 35°23' E 139°39'3 2.7
2016-Jul-14 21:34N 35°21' E 139°41'0 0.0
2016-Jul-14 20:32N 35°21' E 139°41'0 0.0
2016-Jul-14 19:32N 35°21' E 139°41'0 0.0
2016-Jul-14 18:29N 35°21' E 139°41'0 0.0
2016-Jul-14 17:32N 35°21' E 139°41'0 0.1
2016-Jul-14 16:33N 35°21' E 139°41'1110.6
2016-Jul-14 15:33N 35°11' E 139°47'1212.1
2016-Jul-14 14:33N 34°60' E 139°43'1212.3
2016-Jul-14 13:33N 34°48' E 139°49'1312.8
2016-Jul-14 12:32N 34°36' E 139°56'  

Dump ship's entire track history